Un Pendik — TCOD2 — position and weather

sailwx.info

Track history (hours):
 
Tides and Currents Weather Stations Pressure Air Temp Water Temp Dewpoint Dewpoint Depression Visibility Wind Speed Wind Dir Waves Ship Positions

Un Pendik

Last reported at 2017-Aug-18 02:03 UTC. Time now 2017-Aug-18 10:51 UTC.
Position N 36°07' E 030°25'.

Length 2 m; draft 6.5 m.

Type: Ship (hazmat cat A). MMSI: 271000792.

Date/timePositionNaut miles runAvg speedWind from/ knotsBaromVisibWave heightAir tempDewpointWater temp
2017-Aug-18 02:03N 36°07' E 030°25'220.2
2017-Aug-18 01:56N 36°07' E 030°28'919.9
2017-Aug-18 01:29N 36°07' E 030°39'5720.2
2017-Aug-17 22:40N 36°03' E 031°50'4520.2
2017-Aug-17 20:27N 35°59' E 032°45'5 0.2
2017-Aug-16 14:14N 35°59' E 032°51'419.5
2017-Aug-16 14:01N 35°58' E 032°46'1020.1
2017-Aug-16 13:31N 35°59' E 032°34'1019.7
2017-Aug-16 13:00N 35°59' E 032°21'1019.2
2017-Aug-16 12:30N 35°59' E 032°10'918.9
2017-Aug-16 12:01N 35°60' E 031°58'918.9
2017-Aug-16 11:31N 36°00' E 031°46'919.0
2017-Aug-16 11:01N 36°01' E 031°35'1019.2
2017-Aug-16 10:31N 36°01' E 031°23'1319.5
2017-Aug-16 09:51N 36°01' E 031°07'1319.6
2017-Aug-16 09:11N 36°02' E 030°51'619.7
2017-Aug-16 08:52N 36°02' E 030°43'719.5
2017-Aug-16 08:29N 36°02' E 030°34'59516.9
2017-Aug-14 21:22N 39°47' E 018°56'4519.9
2017-Aug-14 19:07N 40°25' E 018°25'220.4
2017-Aug-14 19:00N 40°27' E 018°23'27619.6
2017-Aug-14 04:54N 43°54' E 014°17'1119.3
2017-Aug-14 04:20N 44°02' E 014°08'619.4
2017-Aug-14 04:00N 44°07' E 014°03'1019.5
2017-Aug-14 03:30N 44°15' E 013°55'1019.3
2017-Aug-14 03:00N 44°24' E 013°48'1019.4
2017-Aug-14 02:30N 44°32' E 013°40'1019.3
2017-Aug-14 02:00N 44°40' E 013°33'919.0
2017-Aug-14 01:30N 44°48' E 013°25'1018.9
2017-Aug-14 01:00N 44°56' E 013°18'1019.1
2017-Aug-14 00:30N 45°04' E 013°11'918.8
2017-Aug-14 00:00N 45°12' E 013°05'918.8
2017-Aug-13 23:30N 45°21' E 013°03'918.5
2017-Aug-13 23:00N 45°28' E 013°13'918.6
2017-Aug-13 22:30N 45°34' E 013°23'918.7
2017-Aug-13 22:00N 45°38' E 013°35'714.1
2017-Aug-13 21:30N 45°39' E 013°45'0 0.5
2017-Aug-13 21:00N 45°39' E 013°45'0 0.0
2017-Aug-13 20:30N 45°39' E 013°45'0 0.0
2017-Aug-13 19:53N 45°39' E 013°45'0 0.0
2017-Aug-13 19:29N 45°39' E 013°45'0 0.0
2017-Aug-13 18:59N 45°39' E 013°45'0 0.0
2017-Aug-13 18:29N 45°39' E 013°45'0 0.0
2017-Aug-13 17:58N 45°39' E 013°45'0 0.0
2017-Aug-13 17:28N 45°39' E 013°45'0 0.0
2017-Aug-13 16:58N 45°39' E 013°45'0 0.0
2017-Aug-13 16:25N 45°39' E 013°45'0 0.0
2017-Aug-13 15:58N 45°39' E 013°45'0 0.0
2017-Aug-13 15:24N 45°39' E 013°45'0 0.0
2017-Aug-13 14:57N 45°39' E 013°45'0 0.0
2017-Aug-13 14:30N 45°39' E 013°45'0 0.0
2017-Aug-13 14:00N 45°39' E 013°45'0 0.0
2017-Aug-13 13:30N 45°39' E 013°45'0 0.0
2017-Aug-13 12:59N 45°39' E 013°45'0 0.0
2017-Aug-13 12:29N 45°39' E 013°45'0 0.0
2017-Aug-13 11:59N 45°39' E 013°45'0 0.0
2017-Aug-13 11:26N 45°39' E 013°45'0 0.0
2017-Aug-13 10:58N 45°39' E 013°45'0 0.0
2017-Aug-13 10:25N 45°39' E 013°45'0 0.0
2017-Aug-13 10:00N 45°39' E 013°45'2 3.5
2017-Aug-13 09:30N 45°39' E 013°43'714.3
2017-Aug-13 09:00N 45°36' E 013°34'1019.4
2017-Aug-13 08:30N 45°30' E 013°23'1019.7
2017-Aug-13 08:00N 45°22' E 013°13'1019.6
2017-Aug-13 07:30N 45°13' E 013°16'1019.8
2017-Aug-13 07:00N 45°03' E 013°21'1019.6
2017-Aug-13 06:30N 44°55' E 013°27'1019.6
2017-Aug-13 06:00N 44°46' E 013°34'1019.4
2017-Aug-13 05:30N 44°38' E 013°41'1019.5
2017-Aug-13 05:00N 44°30' E 013°48'1019.5
2017-Aug-13 04:30N 44°22' E 013°56'51519.1
2017-Aug-12 01:34N 37°33' E 020°50'119.8
2017-Aug-12 01:30N 37°32' E 020°51'1019.8
2017-Aug-12 00:59N 37°24' E 020°59'1019.8
2017-Aug-12 00:30N 37°16' E 021°06'2119.8
2017-Aug-11 23:27N 37°00' E 021°23'920.1
2017-Aug-11 23:00N 36°53' E 021°30'12615.2
2017-Aug-11 14:44N 37°27' E 024°02'30118.0
2017-Aug-10 22:01N 40°53' E 028°45'427 8.2
2017-Aug-08 18:02N 37°49' E 020°27'119.7
2017-Aug-08 18:00N 37°49' E 020°26'1619.9
2017-Aug-08 17:13N 38°02' E 020°16'519.7
2017-Aug-08 16:59N 38°06' E 020°13'1319.7
2017-Aug-08 16:20N 38°17' E 020°05'619.8
2017-Aug-08 16:00N 38°23' E 020°00'1219.8
2017-Aug-08 15:23N 38°33' E 019°52'819.7
2017-Aug-08 14:59N 38°40' E 019°47'2119.8
2017-Aug-08 13:57N 38°58' E 019°33'1320.1
2017-Aug-08 13:17N 39°09' E 019°24'620.3
2017-Aug-08 13:01N 39°14' E 019°20'2220.2
2017-Aug-08 11:54N 39°33' E 019°06'11619.8
2017-Aug-08 06:01N 41°08' E 017°37'219.7
2017-Aug-08 05:56N 41°09' E 017°35'819.6
2017-Aug-08 05:31N 41°15' E 017°28'1519.7
2017-Aug-08 04:44N 41°26' E 017°13'819.9
2017-Aug-08 04:21N 41°31' E 017°06'  
Track history (hours):
 
Tides and Currents Weather Stations Pressure Air Temp Water Temp Dewpoint Dewpoint Depression Visibility Wind Speed Wind Dir Waves Ship Positions

Un Pendik

Last reported at 2017-Aug-18 02:03 UTC. Time now 2017-Aug-18 10:51 UTC.
Position N 36°07' E 030°25'.

Length 2 m; draft 6.5 m.

Type: Ship (hazmat cat A). MMSI: 271000792.

Date/timePositionNaut miles runAvg speedWind from/ knotsBaromVisibWave heightAir tempDewpointWater temp
2017-Aug-18 02:03N 36°07' E 030°25'220.2
2017-Aug-18 01:56N 36°07' E 030°28'919.9
2017-Aug-18 01:29N 36°07' E 030°39'5720.2
2017-Aug-17 22:40N 36°03' E 031°50'4520.2
2017-Aug-17 20:27N 35°59' E 032°45'5 0.2
2017-Aug-16 14:14N 35°59' E 032°51'419.5
2017-Aug-16 14:01N 35°58' E 032°46'1020.1
2017-Aug-16 13:31N 35°59' E 032°34'1019.7
2017-Aug-16 13:00N 35°59' E 032°21'1019.2
2017-Aug-16 12:30N 35°59' E 032°10'918.9
2017-Aug-16 12:01N 35°60' E 031°58'918.9
2017-Aug-16 11:31N 36°00' E 031°46'919.0
2017-Aug-16 11:01N 36°01' E 031°35'1019.2
2017-Aug-16 10:31N 36°01' E 031°23'1319.5
2017-Aug-16 09:51N 36°01' E 031°07'1319.6
2017-Aug-16 09:11N 36°02' E 030°51'619.7
2017-Aug-16 08:52N 36°02' E 030°43'719.5
2017-Aug-16 08:29N 36°02' E 030°34'59516.9
2017-Aug-14 21:22N 39°47' E 018°56'4519.9
2017-Aug-14 19:07N 40°25' E 018°25'220.4
2017-Aug-14 19:00N 40°27' E 018°23'27619.6
2017-Aug-14 04:54N 43°54' E 014°17'1119.3
2017-Aug-14 04:20N 44°02' E 014°08'619.4
2017-Aug-14 04:00N 44°07' E 014°03'1019.5
2017-Aug-14 03:30N 44°15' E 013°55'1019.3
2017-Aug-14 03:00N 44°24' E 013°48'1019.4
2017-Aug-14 02:30N 44°32' E 013°40'1019.3
2017-Aug-14 02:00N 44°40' E 013°33'919.0
2017-Aug-14 01:30N 44°48' E 013°25'1018.9
2017-Aug-14 01:00N 44°56' E 013°18'1019.1
2017-Aug-14 00:30N 45°04' E 013°11'918.8
2017-Aug-14 00:00N 45°12' E 013°05'918.8
2017-Aug-13 23:30N 45°21' E 013°03'918.5
2017-Aug-13 23:00N 45°28' E 013°13'918.6
2017-Aug-13 22:30N 45°34' E 013°23'918.7
2017-Aug-13 22:00N 45°38' E 013°35'714.1
2017-Aug-13 21:30N 45°39' E 013°45'0 0.5
2017-Aug-13 21:00N 45°39' E 013°45'0 0.0
2017-Aug-13 20:30N 45°39' E 013°45'0 0.0
2017-Aug-13 19:53N 45°39' E 013°45'0 0.0
2017-Aug-13 19:29N 45°39' E 013°45'0 0.0
2017-Aug-13 18:59N 45°39' E 013°45'0 0.0
2017-Aug-13 18:29N 45°39' E 013°45'0 0.0
2017-Aug-13 17:58N 45°39' E 013°45'0 0.0
2017-Aug-13 17:28N 45°39' E 013°45'0 0.0
2017-Aug-13 16:58N 45°39' E 013°45'0 0.0
2017-Aug-13 16:25N 45°39' E 013°45'0 0.0
2017-Aug-13 15:58N 45°39' E 013°45'0 0.0
2017-Aug-13 15:24N 45°39' E 013°45'0 0.0
2017-Aug-13 14:57N 45°39' E 013°45'0 0.0
2017-Aug-13 14:30N 45°39' E 013°45'0 0.0
2017-Aug-13 14:00N 45°39' E 013°45'0 0.0
2017-Aug-13 13:30N 45°39' E 013°45'0 0.0
2017-Aug-13 12:59N 45°39' E 013°45'0 0.0
2017-Aug-13 12:29N 45°39' E 013°45'0 0.0
2017-Aug-13 11:59N 45°39' E 013°45'0 0.0
2017-Aug-13 11:26N 45°39' E 013°45'0 0.0
2017-Aug-13 10:58N 45°39' E 013°45'0 0.0
2017-Aug-13 10:25N 45°39' E 013°45'0 0.0
2017-Aug-13 10:00N 45°39' E 013°45'2 3.5
2017-Aug-13 09:30N 45°39' E 013°43'714.3
2017-Aug-13 09:00N 45°36' E 013°34'1019.4
2017-Aug-13 08:30N 45°30' E 013°23'1019.7
2017-Aug-13 08:00N 45°22' E 013°13'1019.6
2017-Aug-13 07:30N 45°13' E 013°16'1019.8
2017-Aug-13 07:00N 45°03' E 013°21'1019.6
2017-Aug-13 06:30N 44°55' E 013°27'1019.6
2017-Aug-13 06:00N 44°46' E 013°34'1019.4
2017-Aug-13 05:30N 44°38' E 013°41'1019.5
2017-Aug-13 05:00N 44°30' E 013°48'1019.5
2017-Aug-13 04:30N 44°22' E 013°56'51519.1
2017-Aug-12 01:34N 37°33' E 020°50'119.8
2017-Aug-12 01:30N 37°32' E 020°51'1019.8
2017-Aug-12 00:59N 37°24' E 020°59'1019.8
2017-Aug-12 00:30N 37°16' E 021°06'2119.8
2017-Aug-11 23:27N 37°00' E 021°23'920.1
2017-Aug-11 23:00N 36°53' E 021°30'12615.2
2017-Aug-11 14:44N 37°27' E 024°02'30118.0
2017-Aug-10 22:01N 40°53' E 028°45'427 8.2
2017-Aug-08 18:02N 37°49' E 020°27'119.7
2017-Aug-08 18:00N 37°49' E 020°26'1619.9
2017-Aug-08 17:13N 38°02' E 020°16'519.7
2017-Aug-08 16:59N 38°06' E 020°13'1319.7
2017-Aug-08 16:20N 38°17' E 020°05'619.8
2017-Aug-08 16:00N 38°23' E 020°00'1219.8
2017-Aug-08 15:23N 38°33' E 019°52'819.7
2017-Aug-08 14:59N 38°40' E 019°47'2119.8
2017-Aug-08 13:57N 38°58' E 019°33'1320.1
2017-Aug-08 13:17N 39°09' E 019°24'620.3
2017-Aug-08 13:01N 39°14' E 019°20'2220.2
2017-Aug-08 11:54N 39°33' E 019°06'11619.8
2017-Aug-08 06:01N 41°08' E 017°37'219.7
2017-Aug-08 05:56N 41°09' E 017°35'819.6
2017-Aug-08 05:31N 41°15' E 017°28'1519.7
2017-Aug-08 04:44N 41°26' E 017°13'819.9
2017-Aug-08 04:21N 41°31' E 017°06'  

Dump ship's entire track history